Time;durP1;ratioP1;P1;durP2;ratioP2;P2;SDS_P1;SDS_P2;PMS_P1;PMS_P2;Temp;Humidity;BMP_temperature;BMP_pressure;BME280_temperature;BME280_humidity;BME280_pressure;Samples;Min_cycle;Max_cycle;Signal;HPM_P1;HPM_P2
2022/01/02 00:00:22;;;;;;;17.45;7.38;;;;;;;11.12;82.75;101795.13;5013559;28;19999;-77
2022/01/02 00:02:57;;;;;;;15.90;7.45;;;;;;;11.11;82.69;101790.72;5015921;28;20098;-76
2022/01/02 00:05:23;;;;;;;14.65;6.60;;;;;;;11.12;82.70;101792.50;5020070;28;20044;-77
2022/01/02 00:07:56;;;;;;;17.25;6.57;;;;;;;11.10;82.35;101791.53;5009987;28;20172;-76
2022/01/02 00:10:21;;;;;;;17.83;7.43;;;;;;;11.11;82.55;101802.88;5022132;28;20280;-77
2022/01/02 00:12:56;;;;;;;16.08;7.60;;;;;;;11.10;82.62;101806.31;5022701;28;20026;-77
2022/01/02 00:15:22;;;;;;;17.17;8.18;;;;;;;11.10;82.26;101811.53;5009488;28;20274;-77
2022/01/02 00:17:53;;;;;;;16.48;6.95;;;;;;;11.10;82.65;101822.84;5010975;28;20038;-77
2022/01/02 00:20:32;;;;;;;17.92;7.47;;;;;;;11.11;82.57;101819.41;5008168;28;20030;-77
2022/01/02 00:23:07;;;;;;;22.05;7.72;;;;;;;11.12;82.49;101815.06;5022202;28;20283;-76
2022/01/02 00:25:41;;;;;;;16.23;7.35;;;;;;;11.12;82.50;101812.47;5012633;28;20053;-77
2022/01/02 00:28:10;;;;;;;16.35;7.03;;;;;;;11.13;82.25;101811.63;5010791;28;20017;-77
2022/01/02 00:30:36;;;;;;;14.73;6.93;;;;;;;11.13;82.23;101804.69;5038395;28;20080;-77
2022/01/02 00:33:02;;;;;;;17.27;7.65;;;;;;;11.13;82.53;101793.38;5015446;28;20093;-77
2022/01/02 00:35:27;;;;;;;16.45;7.10;;;;;;;11.14;82.51;101795.16;5013728;28;20034;-77
2022/01/02 00:37:53;;;;;;;15.20;7.35;;;;;;;11.13;82.92;101786.44;5014246;28;20022;-77
2022/01/02 00:40:18;;;;;;;15.13;7.63;;;;;;;11.14;82.91;101789.94;5008782;28;20078;-77
2022/01/02 00:42:44;;;;;;;16.65;7.65;;;;;;;11.12;83.64;101800.31;5015936;28;20375;-77
2022/01/02 00:45:23;;;;;;;16.58;7.38;;;;;;;11.11;84.02;101798.53;5015683;28;20272;-77
2022/01/02 00:47:59;;;;;;;14.23;7.47;;;;;;;11.11;84.29;101800.28;5014215;28;20049;-76
2022/01/02 00:50:33;;;;;;;16.58;8.10;;;;;;;11.09;84.23;101795.00;5013720;28;20048;-76
2022/01/02 00:52:58;;;;;;;16.75;7.85;;;;;;;11.07;85.16;101801.88;5011777;28;20033;-76
2022/01/02 00:55:25;;;;;;;15.43;7.18;;;;;;;11.05;85.62;101792.19;5005595;28;20061;-77
2022/01/02 00:58:10;;;;;;;19.55;7.93;;;;;;;11.03;85.87;101793.88;5009835;28;20076;-76
2022/01/02 01:00:35;;;;;;;19.73;7.88;;;;;;;11.01;86.15;101785.09;5003215;28;20093;-76
2022/01/02 01:03:07;;;;;;;16.65;8.20;;;;;;;10.98;86.56;101788.50;5010860;28;20017;-76
2022/01/02 01:05:35;;;;;;;19.02;7.63;;;;;;;10.96;86.86;101775.41;5005963;28;20034;-76
2022/01/02 01:08:06;;;;;;;21.90;7.95;;;;;;;10.94;87.28;101779.66;5007943;28;20190;-76
2022/01/02 01:10:38;;;;;;;16.10;7.18;;;;;;;10.92;87.59;101764.78;5018116;28;20025;-76
2022/01/02 01:13:06;;;;;;;21.08;7.68;;;;;;;10.91;87.89;101761.28;5021310;28;20022;-76
2022/01/02 01:15:33;;;;;;;21.05;8.32;;;;;;;10.90;87.92;101762.13;5021783;28;20033;-77
2022/01/02 01:18:00;;;;;;;19.50;8.20;;;;;;;10.89;88.10;101764.66;5021088;28;20030;-77
2022/01/02 01:20:29;;;;;;;21.15;8.40;;;;;;;10.88;87.94;101761.19;5036286;28;20200;-77
2022/01/02 01:22:54;;;;;;;15.45;7.85;;;;;;;10.86;87.97;101757.66;5017473;28;20081;-77
2022/01/02 01:25:22;;;;;;;19.88;8.40;;;;;;;10.86;88.37;101748.91;5009173;28;20018;-76
2022/01/02 01:27:49;;;;;;;17.75;7.95;;;;;;;10.82;88.79;101752.25;5010562;28;20033;-76
2022/01/02 01:30:17;;;;;;;21.02;8.30;;;;;;;10.80;88.91;101757.41;5022034;28;20022;-76
2022/01/02 01:32:43;;;;;;;20.08;8.32;;;;;;;10.77;89.16;101746.84;5011879;28;20291;-77
2022/01/02 01:35:10;;;;;;;19.17;8.57;;;;;;;10.76;89.14;101734.66;5008706;28;20018;-76
2022/01/02 01:37:36;;;;;;;16.58;7.65;;;;;;;10.73;88.93;101727.63;5012177;28;20240;-77
2022/01/02 01:40:01;;;;;;;18.25;8.02;;;;;;;10.71;89.26;101738.81;5013466;28;20045;-77
2022/01/02 01:42:37;;;;;;;19.60;7.88;;;;;;;10.69;89.41;101730.94;5013482;28;20192;-76
2022/01/02 01:45:41;;;;;;;19.80;7.75;;;;;;;10.70;89.44;101727.50;5016290;28;20276;-77
2022/01/02 01:48:02;;;;;;;22.25;8.18;;;;;;;10.68;89.24;101729.16;5019164;28;20335;-77
2022/01/02 01:50:35;;;;;;;23.10;8.13;;;;;;;10.68;89.44;101728.28;5012664;28;20049;-76
2022/01/02 01:53:01;;;;;;;18.98;7.35;;;;;;;10.67;89.65;101710.84;5016448;28;20025;-76
2022/01/02 01:55:26;;;;;;;15.20;7.18;;;;;;;10.66;89.78;101722.09;5016321;28;20023;-76
2022/01/02 01:57:52;;;;;;;17.73;6.95;;;;;;;10.66;89.81;101707.38;5018105;28;20248;-76
2022/01/02 02:00:20;;;;;;;16.67;7.57;;;;;;;10.65;89.93;101708.19;5025003;28;20038;-76
2022/01/02 02:02:45;;;;;;;18.90;7.38;;;;;;;10.65;90.03;101697.78;5021248;28;20018;-77
2022/01/02 02:05:12;;;;;;;19.85;7.38;;;;;;;10.67;90.07;101690.00;5013067;28;20081;-76
2022/01/02 02:07:40;;;;;;;20.25;7.40;;;;;;;10.68;89.94;101694.41;5010921;28;20121;-76
2022/01/02 02:10:11;;;;;;;17.25;7.00;;;;;;;10.71;89.99;101684.06;5013786;28;20168;-77
2022/01/02 02:12:47;;;;;;;18.45;7.07;;;;;;;10.73;89.97;101671.97;5011835;28;20093;-76
2022/01/02 02:15:15;;;;;;;20.10;7.22;;;;;;;10.74;89.81;101671.16;5015599;28;20154;-77
2022/01/02 02:17:46;;;;;;;19.90;7.70;;;;;;;10.73;90.22;101672.88;5009684;28;20060;-77
2022/01/02 02:20:15;;;;;;;22.35;7.68;;;;;;;10.74;90.17;101663.34;5013802;28;20030;-77
2022/01/02 02:22:43;;;;;;;17.52;7.18;;;;;;;10.73;90.14;101659.84;5010376;28;20033;-77
2022/01/02 02:25:13;;;;;;;26.63;7.82;;;;;;;10.74;89.96;101663.34;5020847;28;20105;-77
2022/01/02 02:27:39;;;;;;;21.13;7.32;;;;;;;10.75;90.04;101659.91;5020658;28;20057;-76
2022/01/02 02:30:06;;;;;;;20.10;8.32;;;;;;;10.75;90.13;101652.97;5016918;28;20030;-77
2022/01/02 02:32:31;;;;;;;19.73;7.22;;;;;;;10.76;89.82;101653.84;5029591;28;20037;-76
2022/01/02 02:34:56;;;;;;;20.00;7.53;;;;;;;10.76;89.98;101633.88;5020930;28;20072;-77
2022/01/02 02:37:22;;;;;;;17.05;6.70;;;;;;;10.77;89.88;101639.97;5031212;28;20037;-76
2022/01/02 02:39:47;;;;;;;20.63;7.25;;;;;;;10.77;89.81;101647.78;5022204;28;20037;-76
2022/01/02 02:42:30;;;;;;;17.55;7.05;;;;;;;10.80;90.01;101640.09;5019882;28;20061;-76
2022/01/02 02:48:34;;;;;;;18.67;7.00;;;;;;;10.81;89.93;101638.38;5018715;28;20046;-76
2022/01/02 02:50:24;;;;;;;19.63;7.32;;;;;;;10.83;90.10;101624.53;5017007;28;20028;-76
2022/01/02 02:52:50;;;;;;;22.42;8.20;;;;;;;10.81;90.25;101615.78;5012869;28;20034;-77
2022/01/02 02:55:15;;;;;;;21.83;7.63;;;;;;;10.82;90.00;101614.97;5008701;28;20038;-76
2022/01/02 02:57:40;;;;;;;22.30;7.18;;;;;;;10.81;89.92;101607.97;5015510;28;20201;-76
2022/01/02 03:00:06;;;;;;;23.35;8.35;;;;;;;10.81;89.92;101607.97;5010359;28;20054;-77
2022/01/02 03:02:32;;;;;;;19.02;8.15;;;;;;;10.83;90.16;101605.41;5011884;28;20159;-76
2022/01/02 03:04:57;;;;;;;20.70;7.10;;;;;;;10.82;90.00;101607.16;5009883;28;20284;-76
2022/01/02 03:07:22;;;;;;;19.80;8.38;;;;;;;10.82;90.06;101611.47;5011920;28;20022;-77
2022/01/02 03:09:50;;;;;;;17.95;7.43;;;;;;;10.83;90.13;101613.25;5009448;28;20322;-76
2022/01/02 03:12:16;;;;;;;18.77;8.20;;;;;;;10.83;90.14;101611.50;5020927;28;20093;-76
2022/01/02 03:14:41;;;;;;;19.30;7.72;;;;;;;10.83;90.20;101608.91;5015872;28;20042;-76
2022/01/02 03:17:07;;;;;;;21.77;8.63;;;;;;;10.83;90.31;101605.41;5017483;28;20072;-76
2022/01/02 03:19:33;;;;;;;23.88;8.10;;;;;;;10.84;90.33;101599.38;5013332;28;20296;-77
2022/01/02 03:21:59;;;;;;;20.30;8.15;;;;;;;10.83;90.32;101608.03;5009184;28;20025;-76
2022/01/02 03:24:25;;;;;;;20.70;8.65;;;;;;;10.84;90.28;101610.69;5015789;28;20044;-76
2022/01/02 03:26:50;;;;;;;22.13;8.70;;;;;;;10.85;90.28;101602.03;5015533;28;20038;-76
2022/01/02 03:29:16;;;;;;;21.50;8.98;;;;;;;10.87;90.64;101610.78;5008992;28;20295;-76
2022/01/02 03:31:41;;;;;;;20.65;8.55;;;;;;;10.86;90.55;101597.69;5014802;28;20029;-76
2022/01/02 03:34:06;;;;;;;23.83;8.70;;;;;;;10.86;90.66;101603.81;5011686;28;20184;-77
2022/01/02 03:36:32;;;;;;;19.27;8.45;;;;;;;10.88;90.42;101611.69;5013964;28;20025;-76
2022/01/02 03:38:57;;;;;;;19.33;8.57;;;;;;;10.85;90.63;101612.47;5007509;28;20027;-76
2022/01/02 03:41:22;;;;;;;20.30;8.25;;;;;;;10.87;90.73;101618.59;5019476;28;20184;-76
2022/01/02 03:43:48;;;;;;;23.23;8.60;;;;;;;10.89;90.41;101623.88;5008339;28;20075;-76
2022/01/02 03:46:13;;;;;;;19.27;8.45;;;;;;;10.88;90.74;101609.97;5016292;28;20013;-76
2022/01/02 03:48:39;;;;;;;22.60;8.52;;;;;;;10.88;90.83;101604.75;5017475;28;20067;-76
2022/01/02 03:51:04;;;;;;;20.25;8.10;;;;;;;10.88;90.70;101599.53;5016395;28;20103;-76
2022/01/02 03:53:31;;;;;;;21.08;8.63;;;;;;;10.88;90.87;101590.84;5015073;28;20030;-76
2022/01/02 03:55:56;;;;;;;22.00;8.32;;;;;;;10.88;90.39;101591.72;5014020;28;20062;-76
2022/01/02 03:58:21;;;;;;;23.15;9.65;;;;;;;10.85;90.66;101589.00;5011880;28;20046;-76
2022/01/02 04:00:47;;;;;;;30.80;10.90;;;;;;;10.87;90.47;101578.63;5017548;28;20036;-76
2022/01/02 04:03:12;;;;;;;26.48;9.30;;;;;;;10.85;90.59;101565.53;5015787;28;20026;-76
2022/01/02 04:05:38;;;;;;;21.92;8.55;;;;;;;10.86;90.33;101567.31;5006285;28;20049;-76
2022/01/02 04:08:04;;;;;;;23.65;9.63;;;;;;;10.85;90.24;101554.19;5019715;28;20026;-76
2022/01/02 04:10:30;;;;;;;18.70;7.95;;;;;;;10.87;90.16;101556.03;5017718;28;20046;-77
2022/01/02 04:12:55;;;;;;;24.38;9.55;;;;;;;10.87;90.34;101553.44;5013836;28;20042;-76
2022/01/02 04:15:20;;;;;;;22.65;8.30;;;;;;;10.86;90.24;101546.47;5020026;28;20053;-76
2022/01/02 04:17:46;;;;;;;22.05;8.93;;;;;;;10.87;89.77;101553.44;5022576;28;20037;-76
2022/01/02 04:20:13;;;;;;;20.23;8.65;;;;;;;10.87;90.10;101548.22;5013675;28;20284;-76
2022/01/02 04:22:39;;;;;;;19.85;9.27;;;;;;;10.86;90.42;101553.38;5013510;28;20080;-76
2022/01/02 04:25:06;;;;;;;22.98;9.93;;;;;;;10.86;90.42;101551.69;5009397;28;20033;-76
2022/01/02 04:27:31;;;;;;;20.90;9.07;;;;;;;10.83;90.42;101548.94;5013899;28;20280;-76
2022/01/02 04:29:57;;;;;;;27.52;11.40;;;;;;;10.82;90.78;101549.81;5014763;28;20026;-76
2022/01/02 04:32:22;;;;;;;19.75;9.05;;;;;;;10.83;90.60;101553.28;5012535;28;20039;-76
2022/01/02 04:34:48;;;;;;;21.30;9.20;;;;;;;10.81;90.93;101550.63;5012920;28;20226;-76
2022/01/02 04:37:13;;;;;;;23.90;9.35;;;;;;;10.79;90.82;101540.16;5013472;28;20026;-76
2022/01/02 04:39:39;;;;;;;25.00;11.60;;;;;;;10.78;90.89;101529.66;5012454;28;20076;-76
2022/01/02 04:42:05;;;;;;;27.27;9.93;;;;;;;10.77;91.05;101538.31;5033434;28;20049;-76
2022/01/02 04:44:30;;;;;;;25.13;9.43;;;;;;;10.78;91.09;101532.28;5018246;28;20446;-76
2022/01/02 04:46:56;;;;;;;22.13;10.48;;;;;;;10.76;91.10;101523.50;5013893;28;20036;-76
2022/01/02 04:49:22;;;;;;;23.58;10.68;;;;;;;10.74;91.29;101517.38;5017888;28;20276;-76
2022/01/02 04:51:47;;;;;;;26.65;11.65;;;;;;;10.71;91.58;101509.44;5010591;28;20048;-76
2022/01/02 04:54:14;;;;;;;24.92;10.63;;;;;;;10.70;91.35;101497.22;5017082;28;20044;-76
2022/01/02 04:56:39;;;;;;;18.45;7.78;;;;;;;10.68;91.74;101493.72;5013309;28;20033;-76
2022/01/02 04:59:05;;;;;;;20.92;7.80;;;;;;;10.68;91.93;101485.88;5012179;28;20026;-76
2022/01/02 05:01:30;;;;;;;20.52;7.97;;;;;;;10.65;91.81;101478.84;5009814;28;20053;-76
2022/01/02 05:03:55;;;;;;;25.65;7.95;;;;;;;10.64;92.06;101465.75;5009804;28;20096;-76
2022/01/02 05:06:20;;;;;;;16.55;7.13;;;;;;;10.59;92.02;101448.25;5017826;28;20045;-76
2022/01/02 05:08:46;;;;;;;17.77;7.72;;;;;;;10.57;92.11;101449.03;5013181;28;20165;-76
2022/01/02 05:11:13;;;;;;;21.30;8.75;;;;;;;10.54;92.27;101444.63;5018266;28;20034;-77
2022/01/02 05:13:39;;;;;;;19.98;7.60;;;;;;;10.54;92.38;101443.72;5021402;28;20224;-76
2022/01/02 05:16:04;;;;;;;22.02;7.78;;;;;;;10.51;92.48;101443.63;5012349;28;20026;-76
2022/01/02 05:18:30;;;;;;;20.92;7.88;;;;;;;10.53;92.09;101441.94;5017254;28;20030;-76
2022/01/02 05:20:55;;;;;;;19.25;7.75;;;;;;;10.52;92.50;101441.06;5025996;28;20022;-76
2022/01/02 05:23:21;;;;;;;17.30;7.40;;;;;;;10.53;92.38;101444.53;5023576;28;20029;-76
2022/01/02 05:25:47;;;;;;;16.17;7.63;;;;;;;10.53;92.56;101441.94;5017400;28;20026;-76
2022/01/02 05:28:13;;;;;;;22.80;8.43;;;;;;;10.50;92.43;101431.41;5019434;28;20029;-76
2022/01/02 05:30:38;;;;;;;19.80;7.82;;;;;;;10.51;92.41;101430.59;5017108;28;20022;-76
2022/01/02 05:33:04;;;;;;;19.75;8.25;;;;;;;10.50;92.46;101423.59;5014161;28;20053;-76
2022/01/02 05:35:31;;;;;;;22.63;8.38;;;;;;;10.49;92.43;101409.69;5025597;28;20029;-76
2022/01/02 05:37:56;;;;;;;20.27;7.50;;;;;;;10.49;92.47;101414.03;5018911;28;20038;-76
2022/01/02 05:40:21;;;;;;;17.55;7.85;;;;;;;10.48;92.53;101413.13;5015453;28;20022;-77
2022/01/02 05:42:47;;;;;;;22.23;7.90;;;;;;;10.48;92.60;101415.72;5017672;28;20021;-76
2022/01/02 05:45:12;;;;;;;18.70;7.75;;;;;;;10.47;92.59;101403.56;5019539;28;20043;-76
2022/01/02 05:47:38;;;;;;;20.85;7.82;;;;;;;10.46;92.82;101404.38;5015331;28;20093;-76
2022/01/02 05:50:05;;;;;;;20.13;7.55;;;;;;;10.44;92.90;101391.31;5024742;28;20287;-76
2022/01/02 05:52:31;;;;;;;18.92;7.82;;;;;;;10.44;92.69;101390.41;5023957;28;20069;-76
2022/01/02 05:54:57;;;;;;;18.73;7.18;;;;;;;10.42;92.91;101385.16;5015090;28;20268;-77
2022/01/02 05:57:22;;;;;;;18.88;7.72;;;;;;;10.41;92.70;101369.47;5020725;28;20040;-76
2022/01/02 05:59:47;;;;;;;17.08;7.30;;;;;;;10.41;92.74;101361.66;5020069;28;20176;-76
2022/01/02 06:02:13;;;;;;;23.52;7.65;;;;;;;10.40;92.69;101357.31;5015888;28;20029;-76
2022/01/02 06:04:38;;;;;;;15.95;7.03;;;;;;;10.38;92.62;101341.59;5013819;28;20037;-76
2022/01/02 06:07:04;;;;;;;19.55;6.75;;;;;;;10.36;92.78;101329.38;5024954;28;20041;-77
2022/01/02 06:09:29;;;;;;;15.25;7.15;;;;;;;10.36;92.75;101324.16;5021853;28;20096;-76
2022/01/02 06:11:55;;;;;;;23.27;8.23;;;;;;;10.36;92.31;101334.59;5012751;28;20053;-76
2022/01/02 06:14:20;;;;;;;17.85;7.47;;;;;;;10.35;92.70;101322.38;5019474;28;20408;-76
2022/01/02 06:16:45;;;;;;;20.38;7.70;;;;;;;10.33;92.30;101321.44;5023138;28;20276;-76
2022/01/02 06:19:11;;;;;;;14.93;6.85;;;;;;;10.32;92.19;101312.72;5023122;28;20029;-76
2022/01/02 06:21:36;;;;;;;13.63;6.60;;;;;;;10.35;92.31;101304.16;5011781;28;20034;-77
2022/01/02 06:24:01;;;;;;;16.77;6.85;;;;;;;10.34;92.10;101290.25;5012248;28;20196;-76
2022/01/02 06:26:27;;;;;;;17.48;7.28;;;;;;;10.35;92.04;101278.09;5023029;28;20057;-77
2022/01/02 06:28:52;;;;;;;15.50;6.90;;;;;;;10.35;91.77;101276.38;5033104;28;20076;-76
2022/01/02 06:31:17;;;;;;;16.13;6.85;;;;;;;10.36;91.49;101262.53;5010110;28;20080;-76
2022/01/02 06:33:42;;;;;;;17.08;6.45;;;;;;;10.38;91.14;101247.81;5007439;28;20026;-76
2022/01/02 06:36:08;;;;;;;18.15;6.68;;;;;;;10.40;90.84;101233.13;5021080;28;20018;-77
2022/01/02 06:38:33;;;;;;;15.50;5.93;;;;;;;10.39;90.67;101239.16;5024197;28;20211;-77
2022/01/02 06:40:58;;;;;;;16.30;6.28;;;;;;;10.38;90.74;101213.94;5014153;28;20040;-76
2022/01/02 06:43:24;;;;;;;16.00;6.03;;;;;;;10.43;90.39;101215.00;5041316;28;20042;-77
2022/01/02 06:45:49;;;;;;;15.45;6.28;;;;;;;10.41;90.46;101203.66;5019902;28;20029;-77
2022/01/02 06:48:15;;;;;;;14.88;6.03;;;;;;;10.42;89.88;101188.91;5017557;28;20097;-76
2022/01/02 06:50:40;;;;;;;14.68;6.53;;;;;;;10.40;90.09;101177.56;5027643;28;20022;-76
2022/01/02 06:53:06;;;;;;;14.63;6.20;;;;;;;10.40;89.96;101174.94;5044362;28;20025;-77
2022/01/02 06:55:32;;;;;;;18.75;6.18;;;;;;;10.40;90.04;101175.81;5022438;28;20025;-76
2022/01/02 06:57:57;;;;;;;16.17;6.30;;;;;;;10.44;89.23;101161.16;5009236;28;20026;-77
2022/01/02 07:00:22;;;;;;;13.13;6.18;;;;;;;10.42;89.28;101176.75;5011059;28;20037;-77
2022/01/02 07:02:48;;;;;;;16.60;6.13;;;;;;;10.44;89.36;101158.53;5013780;28;20082;-77
2022/01/02 07:05:13;;;;;;;13.25;5.45;;;;;;;10.44;89.54;101150.72;5013151;28;20042;-77
2022/01/02 07:07:41;;;;;;;12.90;5.38;;;;;;;10.47;88.35;101150.84;5014596;28;20038;-77
2022/01/02 07:10:06;;;;;;;17.10;5.65;;;;;;;10.48;88.40;101159.53;5015507;28;20026;-76
2022/01/02 07:12:32;;;;;;;12.15;5.45;;;;;;;10.50;88.15;101156.16;5011492;28;20268;-77
2022/01/02 07:14:57;;;;;;;14.32;5.78;;;;;;;10.50;88.06;101158.75;5016869;28;20029;-76
2022/01/02 07:17:22;;;;;;;13.18;5.03;;;;;;;10.51;88.06;101162.22;5022854;28;20314;-76
2022/01/02 07:19:48;;;;;;;13.25;5.70;;;;;;;10.52;87.88;101164.00;5009064;28;20030;-76
2022/01/02 07:22:13;;;;;;;13.98;5.57;;;;;;;10.52;88.09;101183.09;5010963;28;20276;-76
2022/01/02 07:24:39;;;;;;;15.55;5.50;;;;;;;10.52;87.94;101183.09;5011207;28;20030;-77
2022/01/02 07:27:05;;;;;;;13.50;5.45;;;;;;;10.50;87.75;101169.16;5011099;28;20037;-76
2022/01/02 07:29:30;;;;;;;11.93;5.57;;;;;;;10.54;87.40;101164.91;5021335;28;20029;-76
2022/01/02 07:31:55;;;;;;;13.38;5.53;;;;;;;10.53;86.93;101153.63;5017708;28;20056;-76
2022/01/02 07:34:21;;;;;;;12.50;5.75;;;;;;;10.55;87.02;101144.13;5021283;28;20026;-76
2022/01/02 07:36:46;;;;;;;14.50;5.68;;;;;;;10.54;87.23;101139.75;5010836;28;20196;-76
2022/01/02 07:39:13;;;;;;;14.80;5.03;;;;;;;10.54;87.27;101144.97;5011284;28;20065;-76
2022/01/02 07:41:38;;;;;;;13.20;5.13;;;;;;;10.56;86.33;101155.44;5011203;28;20022;-76
2022/01/02 07:44:04;;;;;;;11.60;5.35;;;;;;;10.56;86.37;101151.09;5014798;28;20122;-77
2022/01/02 07:46:32;;;;;;;12.32;5.30;;;;;;;10.59;86.32;101145.97;5011802;28;20054;-76
2022/01/02 07:48:58;;;;;;;15.13;5.83;;;;;;;10.59;85.98;101140.75;5009812;28;20160;-76
2022/01/02 07:51:23;;;;;;;13.57;5.22;;;;;;;10.61;86.03;101166.84;5012722;28;20024;-76
2022/01/02 07:53:48;;;;;;;11.65;5.43;;;;;;;10.63;85.68;101146.06;5013978;28;20025;-76
2022/01/02 07:56:15;;;;;;;12.00;5.22;;;;;;;10.63;86.03;101169.50;5010678;28;20026;-76
2022/01/02 07:58:41;;;;;;;13.45;5.78;;;;;;;10.61;86.04;101175.53;5004108;28;20018;-76
2022/01/02 08:01:06;;;;;;;15.35;5.70;;;;;;;10.63;86.26;101193.88;5010993;28;20057;-76
2022/01/02 08:03:31;;;;;;;13.05;5.50;;;;;;;10.62;86.98;101194.69;5005709;28;20049;-76
2022/01/02 08:05:57;;;;;;;14.15;5.80;;;;;;;10.60;87.12;101193.75;5006427;28;20037;-76
2022/01/02 08:08:22;;;;;;;17.63;6.00;;;;;;;10.58;87.23;101180.69;5009735;28;20022;-76
2022/01/02 08:10:47;;;;;;;13.85;6.05;;;;;;;10.56;87.39;101177.16;5009483;28;20030;-76
2022/01/02 08:13:12;;;;;;;16.30;5.93;;;;;;;10.54;87.42;101181.44;5011280;28;20081;-76
2022/01/02 08:15:38;;;;;;;12.60;5.65;;;;;;;10.53;87.53;101181.38;5019519;28;20076;-76
2022/01/02 08:18:03;;;;;;;11.68;5.95;;;;;;;10.53;87.57;101191.78;5017724;28;20014;-76
2022/01/02 08:20:29;;;;;;;15.57;6.10;;;;;;;10.52;87.64;101195.28;5039793;28;20026;-76
2022/01/02 08:22:56;;;;;;;10.82;5.55;;;;;;;10.52;87.59;101184.84;5012304;28;20279;-76
2022/01/02 08:25:22;;;;;;;13.52;5.95;;;;;;;10.52;87.37;101200.47;5015589;28;20029;-76
2022/01/02 08:27:47;;;;;;;11.88;6.00;;;;;;;10.53;87.10;101186.59;5014969;28;20028;-76
2022/01/02 08:30:12;;;;;;;14.05;5.75;;;;;;;10.54;86.87;101178.84;5026588;28;20028;-76
2022/01/02 08:32:38;;;;;;;12.25;6.03;;;;;;;10.54;86.86;101151.88;5014023;28;20101;-76
2022/01/02 08:35:05;;;;;;;13.55;6.20;;;;;;;10.54;86.98;101183.16;5017203;28;20030;-76
2022/01/02 08:37:30;;;;;;;13.57;6.05;;;;;;;10.55;86.75;101201.44;5022400;28;20029;-76
2022/01/02 08:39:56;;;;;;;10.30;5.88;;;;;;;10.56;86.35;101177.16;5020314;28;20116;-76
2022/01/02 08:42:21;;;;;;;14.82;5.95;;;;;;;10.57;86.40;101173.72;5008304;28;20080;-76
2022/01/02 08:44:46;;;;;;;14.75;6.20;;;;;;;10.59;85.39;101176.38;5011434;28;20027;-76
2022/01/02 08:47:12;;;;;;;11.85;6.28;;;;;;;10.60;85.87;101178.09;5015517;28;20025;-76
2022/01/02 08:49:37;;;;;;;12.98;6.32;;;;;;;10.63;85.23;101172.13;5010710;28;20170;-76
2022/01/02 08:52:03;;;;;;;10.25;6.13;;;;;;;10.65;84.82;101189.56;5021551;28;20026;-76
2022/01/02 08:54:28;;;;;;;13.18;5.38;;;;;;;10.69;84.61;101195.72;5020693;28;20173;-76
2022/01/02 08:56:54;;;;;;;13.55;6.47;;;;;;;10.76;83.49;101195.06;5009924;28;20027;-77
2022/01/02 08:59:24;;;;;;;12.57;6.40;;;;;;;10.80;83.40;101196.94;5013832;28;20046;-76
2022/01/02 09:01:52;;;;;;;11.77;6.75;;;;;;;10.84;83.57;101193.56;5009774;28;20098;-76
2022/01/02 09:04:17;;;;;;;13.68;6.38;;;;;;;10.85;83.59;101187.53;5015454;28;20033;-76
2022/01/02 09:06:43;;;;;;;14.43;6.78;;;;;;;10.88;83.13;101178.91;5014033;28;20223;-76
2022/01/02 09:09:08;;;;;;;14.40;6.85;;;;;;;10.89;83.46;101191.09;5012996;28;20065;-76
2022/01/02 09:11:34;;;;;;;18.13;7.97;;;;;;;10.92;83.10;101192.06;5016078;28;20030;-76
2022/01/02 09:14:01;;;;;;;14.55;7.07;;;;;;;10.93;83.24;101178.22;5012473;28;20040;-76
2022/01/02 09:16:26;;;;;;;17.70;7.65;;;;;;;10.94;83.03;101177.34;5018015;28;20053;-76
2022/01/02 09:18:51;;;;;;;17.65;7.85;;;;;;;10.99;82.71;101177.47;5021782;28;20038;-76
2022/01/02 09:21:16;;;;;;;16.38;7.82;;;;;;;11.03;82.32;101183.66;5012597;28;20034;-77
2022/01/02 09:23:42;;;;;;;14.13;7.97;;;;;;;11.08;82.61;101182.94;5019494;28;20030;-77
2022/01/02 09:26:07;;;;;;;16.83;7.88;;;;;;;11.13;82.83;101181.31;5019522;28;20036;-76
2022/01/02 09:28:33;;;;;;;15.57;8.40;;;;;;;11.22;82.63;101185.91;5018727;28;20241;-77
2022/01/02 09:30:58;;;;;;;19.10;8.90;;;;;;;11.30;82.83;101184.38;5013341;28;20193;-76
2022/01/02 09:33:23;;;;;;;17.10;8.07;;;;;;;11.37;82.82;101190.66;5005555;28;20060;-76
2022/01/02 09:35:49;;;;;;;17.38;9.00;;;;;;;11.43;82.29;101196.03;5007902;28;20069;-77
2022/01/02 09:38:14;;;;;;;16.52;8.88;;;;;;;11.49;82.26;101187.47;5017882;28;20045;-76
2022/01/02 09:40:41;;;;;;;20.15;9.95;;;;;;;11.53;82.06;101181.50;5010270;28;20026;-77
2022/01/02 09:43:06;;;;;;;21.50;9.55;;;;;;;11.57;81.91;101198.09;5014985;28;20033;-77
2022/01/02 09:45:33;;;;;;;19.05;8.63;;;;;;;11.58;82.11;101198.13;5021022;28;20022;-77
2022/01/02 09:48:00;;;;;;;17.38;8.80;;;;;;;11.62;81.64;101202.59;5015084;28;20320;-77
2022/01/02 09:50:25;;;;;;;15.65;9.23;;;;;;;11.66;80.87;101196.59;5019842;28;20026;-77
2022/01/02 09:52:51;;;;;;;18.02;9.15;;;;;;;11.66;81.48;101201.81;5016647;28;20360;-77
2022/01/02 09:55:16;;;;;;;21.67;9.73;;;;;;;11.67;81.43;101213.13;5021338;28;20180;-77
2022/01/02 09:57:46;;;;;;;18.85;9.23;;;;;;;11.65;81.60;101201.78;5012228;28;20034;-74
2022/01/02 10:00:12;;;;;;;21.95;9.70;;;;;;;11.68;81.00;101198.38;5014804;28;20038;-77
2022/01/02 10:03:01;;;;;;;19.10;9.60;;;;;;;11.68;81.15;101196.66;5023165;28;20093;-77
2022/01/02 10:05:28;;;;;;;18.83;9.32;;;;;;;11.69;80.95;101198.41;5021757;28;20264;-77
2022/01/02 10:07:55;;;;;;;17.63;9.10;;;;;;;11.70;80.90;101210.59;5020165;28;20092;-77
2022/01/02 10:10:21;;;;;;;16.25;8.93;;;;;;;11.75;81.06;101213.34;5023257;28;20026;-76
2022/01/02 10:12:47;;;;;;;19.02;9.68;;;;;;;11.79;81.17;101212.59;5018856;28;20064;-77
2022/01/02 10:15:22;;;;;;;19.83;9.43;;;;;;;11.85;80.55;101223.16;5019266;28;20025;-76
2022/01/02 10:17:51;;;;;;;30.13;13.18;;;;;;;11.84;81.39;101219.66;5026842;28;20028;-77
2022/01/02 10:20:17;;;;;;;24.05;12.50;;;;;;;11.82;80.99;101207.44;5018867;28;20119;-76
2022/01/02 10:23:11;;;;;;;21.60;9.38;;;;;;;11.81;81.54;101206.53;5015773;28;20041;-76
2022/01/02 10:25:48;;;;;;;26.77;12.80;;;;;;;11.81;81.00;101208.28;5021915;28;20056;-77
2022/01/02 10:28:34;;;;;;;19.10;9.43;;;;;;;11.80;81.56;101199.56;5018949;28;20086;-76
2022/01/02 10:31:07;;;;;;;17.90;9.13;;;;;;;11.79;80.82;101202.16;5018893;28;20400;-77
2022/01/02 10:33:54;;;;;;;32.10;19.48;;;;;;;11.82;81.45;101199.59;5016240;28;20029;-76
2022/01/02 10:36:34;;;;;;;21.17;11.18;;;;;;;11.81;81.51;101187.38;5015393;28;20022;-77
2022/01/02 10:39:08;;;;;;;20.27;9.93;;;;;;;11.79;81.44;101203.00;5017017;28;20264;-76
2022/01/02 10:41:34;;;;;;;23.65;12.73;;;;;;;11.84;81.55;101192.69;5017300;28;20041;-76
2022/01/02 10:44:31;;;;;;;20.70;9.23;;;;;;;11.88;81.84;101197.13;5012008;28;20040;-76
2022/01/02 10:47:22;;;;;;;23.60;9.30;;;;;;;11.90;81.73;101190.19;5016096;28;20018;-76
2022/01/02 10:50:07;;;;;;;20.08;8.65;;;;;;;11.88;81.15;101181.47;5018922;28;20161;-77
2022/01/02 10:52:41;;;;;;;22.02;9.07;;;;;;;11.88;81.57;101180.59;5019171;28;20093;-76
2022/01/02 10:55:18;;;;;;;23.63;9.13;;;;;;;11.89;81.73;101191.06;5013464;28;20045;-76
2022/01/02 10:57:49;;;;;;;18.33;8.43;;;;;;;11.89;81.61;101193.69;5010359;28;20057;-76
2022/01/02 11:00:16;;;;;;;17.60;9.75;;;;;;;11.93;81.37;101192.00;5021397;28;20288;-76
2022/01/02 11:02:41;;;;;;;20.85;8.60;;;;;;;11.92;81.49;101196.38;5008496;28;20097;-77
2022/01/02 11:05:10;;;;;;;18.08;9.25;;;;;;;11.91;81.50;101189.38;5015252;28;20038;-76
2022/01/02 11:07:41;;;;;;;18.77;9.45;;;;;;;11.92;81.63;101180.69;5015449;28;20353;-77
2022/01/02 11:10:08;;;;;;;15.95;8.43;;;;;;;11.94;81.50;101183.38;5021283;28;20028;-76
2022/01/02 11:12:34;;;;;;;18.92;8.82;;;;;;;11.98;82.00;101186.09;5041205;28;20050;-76
2022/01/02 11:15:00;;;;;;;17.77;7.95;;;;;;;12.06;81.25;101186.25;5020743;28;20129;-77
2022/01/02 11:17:25;;;;;;;19.67;9.10;;;;;;;12.08;81.65;101181.06;5018881;28;20025;-76
2022/01/02 11:19:51;;;;;;;18.17;8.27;;;;;;;12.10;81.02;101180.25;5019947;28;20061;-77